Time;durP1;ratioP1;P1;durP2;ratioP2;P2;SDS_P1;SDS_P2;PMS_P1;PMS_P2;Temp;Humidity;BMP_temperature;BMP_pressure;BME280_temperature;BME280_humidity;BME280_pressure;Samples;Min_cycle;Max_cycle;Signal;HPM_P1;HPM_P2
2022/06/03 00:00:07;;;;;;;5.40;4.90;;;18.80;66.80;;;;;;6219302;23;20144;-86
2022/06/03 00:02:56;;;;;;;5.00;4.50;;;18.80;66.80;;;;;;6194163;23;20258;-86
2022/06/03 00:05:55;;;;;;;5.68;4.85;;;18.80;66.80;;;;;;6219353;23;20173;-86
2022/06/03 00:08:44;;;;;;;5.25;4.75;;;18.80;66.80;;;;;;6226843;23;20589;-86
2022/06/03 00:11:35;;;;;;;5.63;4.95;;;18.80;66.80;;;;;;6173177;23;20137;-86
2022/06/03 00:14:36;;;;;;;5.22;4.53;;;18.80;66.70;;;;;;6223767;23;20565;-86
2022/06/03 00:17:25;;;;;;;4.90;4.40;;;18.80;66.90;;;;;;6246070;23;20167;-86
2022/06/03 00:20:08;;;;;;;5.57;4.70;;;18.80;66.90;;;;;;6198024;23;20141;-86
2022/06/03 00:23:03;;;;;;;5.20;4.70;;;18.70;66.80;;;;;;6195440;23;20134;-86
2022/06/03 00:25:52;;;;;;;5.65;5.15;;;18.70;67.00;;;;;;6172413;23;20176;-86
2022/06/03 00:28:28;;;;;;;4.90;4.40;;;18.70;67.00;;;;;;6196235;23;20125;-86
2022/06/03 00:31:26;;;;;;;5.47;4.97;;;18.70;67.00;;;;;;6195701;23;20133;-86
2022/06/03 00:34:26;;;;;;;5.68;4.60;;;18.80;66.90;;;;;;6200963;23;20133;-86
2022/06/03 00:37:16;;;;;;;5.68;5.13;;;18.80;66.90;;;;;;6223122;23;20134;-86
2022/06/03 00:39:54;;;;;;;5.78;5.28;;;18.80;66.90;;;;;;6171147;23;20488;-86
2022/06/03 00:43:00;;;;;;;5.97;5.05;;;18.70;66.80;;;;;;6170971;23;20161;-86
2022/06/03 00:45:57;;;;;;;5.50;4.88;;;18.70;66.90;;;;;;6198781;23;20164;-85
2022/06/03 00:48:42;;;;;;;5.15;4.65;;;18.70;67.00;;;;;;6226348;23;20134;-86
2022/06/03 00:51:36;;;;;;;5.20;4.70;;;18.70;67.00;;;;;;6194944;23;20164;-86
2022/06/03 00:54:38;;;;;;;5.30;4.80;;;18.70;66.90;;;;;;6174930;23;20138;-86
2022/06/03 00:57:38;;;;;;;5.88;4.70;;;18.70;66.90;;;;;;6225318;23;20145;-86
2022/06/03 01:00:26;;;;;;;4.97;4.47;;;18.70;66.90;;;;;;6221125;23;20146;-86
2022/06/03 01:03:28;;;;;;;5.85;4.65;;;18.80;66.90;;;;;;6199981;23;20193;-86
2022/06/03 01:06:28;;;;;;;5.85;4.65;;;18.70;66.90;;;;;;6247476;23;20308;-86
2022/06/03 01:09:12;;;;;;;5.45;4.88;;;18.70;66.80;;;;;;6247627;23;20144;-86
2022/06/03 01:11:56;;;;;;;6.40;4.85;;;18.70;66.70;;;;;;6221267;23;20142;-86
2022/06/03 01:14:36;;;;;;;5.40;4.80;;;18.70;66.80;;;;;;6221085;23;20217;-86
2022/06/03 01:17:12;;;;;;;5.32;4.82;;;18.70;66.70;;;;;;6220980;23;20144;-86
2022/06/03 01:20:00;;;;;;;6.03;4.90;;;18.70;66.90;;;;;;6172012;23;20145;-86
2022/06/03 01:22:57;;;;;;;5.18;4.68;;;18.70;66.90;;;;;;6199070;23;20488;-86
2022/06/03 01:25:59;;;;;;;7.00;4.60;;;18.70;66.80;;;;;;6220874;23;20627;-86
2022/06/03 01:28:48;;;;;;;4.97;4.50;;;18.60;66.70;;;;;;6200160;23;20573;-86
2022/06/03 01:31:49;;;;;;;5.43;4.80;;;18.70;66.90;;;;;;6247597;23;20140;-86
2022/06/03 01:34:40;;;;;;;5.22;4.40;;;18.60;66.80;;;;;;6199850;23;20140;-86
2022/06/03 01:37:29;;;;;;;5.00;4.50;;;18.70;66.90;;;;;;6195794;23;20153;-86
2022/06/03 01:40:35;;;;;;;5.32;4.80;;;18.70;67.00;;;;;;6224338;23;20137;-86
2022/06/03 01:43:12;;;;;;;4.82;4.38;;;18.60;67.10;;;;;;6183180;23;20153;-86
2022/06/03 01:46:01;;;;;;;5.97;5.13;;;18.70;67.20;;;;;;6195396;23;20176;-86
2022/06/03 01:48:56;;;;;;;6.65;4.90;;;18.60;67.10;;;;;;6174429;23;20191;-86
2022/06/03 01:51:49;;;;;;;5.47;4.97;;;18.60;67.20;;;;;;6202078;23;20179;-86
2022/06/03 01:54:33;;;;;;;5.63;5.03;;;18.60;67.20;;;;;;6178770;23;20157;-86
2022/06/03 01:57:16;;;;;;;5.47;4.97;;;18.60;67.20;;;;;;6220619;23;20480;-86
2022/06/03 02:00:05;;;;;;;5.18;4.68;;;18.60;67.20;;;;;;6171325;23;20151;-86
2022/06/03 02:03:00;;;;;;;5.78;4.72;;;18.60;67.20;;;;;;6195471;23;20212;-86
2022/06/03 02:05:57;;;;;;;5.47;4.90;;;18.60;67.20;;;;;;6247101;23;20177;-86
2022/06/03 02:08:51;;;;;;;5.25;4.75;;;18.60;67.30;;;;;;6220142;23;20175;-86
2022/06/03 02:11:28;;;;;;;5.78;4.82;;;18.60;67.10;;;;;;6197965;23;20142;-86
2022/06/03 02:14:17;;;;;;;5.05;4.55;;;18.60;67.20;;;;;;6196844;23;20138;-86
2022/06/03 02:17:21;;;;;;;5.75;5.10;;;18.60;67.20;;;;;;6173744;23;20149;-86
2022/06/03 02:20:00;;;;;;;5.15;4.60;;;18.60;67.40;;;;;;6220051;23;20157;-86
2022/06/03 02:22:49;;;;;;;5.25;4.53;;;18.60;67.20;;;;;;6222076;23;20557;-86
2022/06/03 02:25:52;;;;;;;5.20;4.70;;;18.60;67.20;;;;;;6195281;23;20145;-86
2022/06/03 02:28:48;;;;;;;4.90;4.50;;;18.60;67.30;;;;;;6220361;23;20156;-86
2022/06/03 02:31:34;;;;;;;5.43;4.93;;;18.60;67.30;;;;;;6176580;23;20176;-86
2022/06/03 02:34:32;;;;;;;5.53;4.93;;;18.60;67.10;;;;;;6195271;23;20141;-86
2022/06/03 02:37:10;;;;;;;4.93;4.53;;;18.60;67.30;;;;;;6247028;23;20212;-86
2022/06/03 02:39:55;;;;;;;5.00;4.45;;;18.60;67.40;;;;;;6196408;23;20585;-86
2022/06/03 02:42:34;;;;;;;4.97;4.57;;;18.60;67.40;;;;;;6194676;23;20149;-86
2022/06/03 02:45:23;;;;;;;5.22;4.72;;;18.50;67.30;;;;;;6172056;23;20145;-86
2022/06/03 02:48:16;;;;;;;5.13;4.63;;;18.60;67.20;;;;;;6192295;23;20221;-86
2022/06/03 02:51:12;;;;;;;5.70;4.80;;;18.50;67.20;;;;;;6219921;23;20484;-86
2022/06/03 02:54:03;;;;;;;5.10;4.60;;;18.50;67.20;;;;;;6195156;23;20141;-86
2022/06/03 02:56:43;;;;;;;5.50;4.90;;;18.60;67.40;;;;;;6223649;23;20144;-87
2022/06/03 02:59:35;;;;;;;4.90;4.50;;;18.60;67.30;;;;;;6221422;23;20171;-86
2022/06/03 03:02:26;;;;;;;5.40;4.57;;;18.60;67.20;;;;;;6246724;23;20133;-86
2022/06/03 03:05:14;;;;;;;4.88;4.43;;;18.50;67.00;;;;;;6224201;23;20165;-86
2022/06/03 03:07:49;;;;;;;5.50;4.40;;;18.60;67.10;;;;;;6198516;23;20168;-87
2022/06/03 03:10:22;;;;;;;5.30;4.70;;;18.60;67.10;;;;;;6221509;23;20168;-87
2022/06/03 03:13:14;;;;;;;5.70;5.03;;;18.60;67.10;;;;;;6171484;23;20208;-86
2022/06/03 03:15:54;;;;;;;5.57;4.25;;;18.60;67.10;;;;;;6198500;23;20206;-87
2022/06/03 03:18:44;;;;;;;5.82;4.50;;;18.60;67.10;;;;;;6221898;23;20137;-86
2022/06/03 03:21:34;;;;;;;5.05;4.40;;;18.60;67.10;;;;;;6198657;23;20172;-87
2022/06/03 03:24:35;;;;;;;5.10;4.60;;;18.60;67.10;;;;;;6194455;23;20141;-86
2022/06/03 03:27:23;;;;;;;5.07;4.57;;;18.60;68.00;;;;;;6197905;23;20169;-86
2022/06/03 03:30:02;;;;;;;4.80;4.40;;;18.60;67.00;;;;;;6194690;23;20142;-87
2022/06/03 03:32:47;;;;;;;4.97;4.57;;;18.60;66.90;;;;;;6171521;23;20137;-87
2022/06/03 03:35:40;;;;;;;5.07;4.57;;;18.60;67.20;;;;;;6196009;23;20129;-87
2022/06/03 03:38:22;;;;;;;4.93;4.43;;;18.50;67.20;;;;;;6219471;23;20184;-87
2022/06/03 03:41:18;;;;;;;5.32;4.82;;;18.60;67.10;;;;;;6171165;23;20145;-87
2022/06/03 03:44:14;;;;;;;6.47;4.65;;;18.60;67.10;;;;;;6197813;23;20566;-86
2022/06/03 03:47:01;;;;;;;5.95;4.68;;;18.60;67.00;;;;;;6178411;23;20237;-86
2022/06/03 03:49:39;;;;;;;5.13;4.63;;;18.60;66.90;;;;;;6194920;23;20161;-87
2022/06/03 03:52:23;;;;;;;5.30;4.68;;;18.60;66.80;;;;;;6194255;23;20147;-87
2022/06/03 03:55:26;;;;;;;5.10;4.40;;;18.70;66.60;;;;;;6194686;23;20141;-87
2022/06/03 03:58:12;;;;;;;5.18;4.68;;;18.60;66.70;;;;;;6219438;23;20153;-87
2022/06/03 04:01:07;;;;;;;4.93;4.43;;;18.60;66.60;;;;;;6194488;23;20141;-87
2022/06/03 04:04:07;;;;;;;5.53;4.53;;;18.60;66.60;;;;;;6219356;23;20616;-87
2022/06/03 04:06:59;;;;;;;4.57;4.18;;;18.70;66.60;;;;;;6219116;23;20184;-87
2022/06/03 04:09:47;;;;;;;4.85;4.40;;;18.70;66.50;;;;;;6178010;23;20142;-87
2022/06/03 04:12:33;;;;;;;5.25;4.30;;;18.70;66.30;;;;;;6223729;23;20126;-87
2022/06/03 04:15:26;;;;;;;4.60;4.20;;;18.70;66.20;;;;;;6194628;23;20576;-87
2022/06/03 04:18:16;;;;;;;5.40;4.65;;;18.70;66.10;;;;;;6202954;23;20134;-87
2022/06/03 04:21:10;;;;;;;4.70;4.20;;;18.80;66.20;;;;;;6196133;23;20579;-87
2022/06/03 04:24:08;;;;;;;5.50;4.32;;;18.70;66.30;;;;;;6194239;23;20569;-87
2022/06/03 04:26:57;;;;;;;4.95;4.45;;;18.70;66.10;;;;;;6245964;23;20177;-86
2022/06/03 04:29:51;;;;;;;4.72;4.28;;;18.80;66.10;;;;;;6172481;23;20466;-87
2022/06/03 04:32:49;;;;;;;4.90;4.40;;;18.70;66.10;;;;;;6176961;23;20198;-87
2022/06/03 04:35:48;;;;;;;4.65;4.25;;;18.70;66.10;;;;;;6222122;23;20141;-87
2022/06/03 04:38:38;;;;;;;5.18;4.10;;;18.80;65.80;;;;;;6221140;23;20160;-87
2022/06/03 04:41:39;;;;;;;5.07;4.57;;;18.80;65.60;;;;;;6199744;23;20141;-87
2022/06/03 04:44:34;;;;;;;5.10;4.60;;;18.80;65.70;;;;;;6247755;23;20203;-87
2022/06/03 04:47:39;;;;;;;4.90;4.40;;;18.80;65.60;;;;;;6175148;23;20616;-87
2022/06/03 04:50:37;;;;;;;4.90;4.40;;;18.90;65.40;;;;;;6225834;23;20569;-87
2022/06/03 04:53:40;;;;;;;4.57;4.13;;;18.90;65.30;;;;;;6196960;23;20220;-87
2022/06/03 04:56:39;;;;;;;4.40;4.00;;;18.90;65.40;;;;;;6247963;23;20138;-87
2022/06/03 04:59:41;;;;;;;4.85;4.40;;;18.90;65.30;;;;;;6248007;23;20138;-87
2022/06/03 05:02:41;;;;;;;5.35;4.25;;;18.90;65.40;;;;;;6195818;23;20156;-87
2022/06/03 05:05:40;;;;;;;4.57;4.18;;;18.90;65.50;;;;;;6161393;23;20165;-87
2022/06/03 05:08:32;;;;;;;4.60;4.18;;;18.90;65.50;;;;;;6186104;23;20139;-87
2022/06/03 05:11:28;;;;;;;4.30;3.90;;;18.80;65.40;;;;;;6207952;23;20553;-87
2022/06/03 05:14:31;;;;;;;5.03;4.30;;;18.90;65.60;;;;;;6138919;23;20489;-87
2022/06/03 05:17:11;;;;;;;5.28;4.30;;;18.90;65.40;;;;;;6207497;23;20155;-86
2022/06/03 05:20:01;;;;;;;4.78;4.28;;;18.90;65.40;;;;;;6142865;23;20142;-87
2022/06/03 05:22:49;;;;;;;4.55;4.15;;;18.90;65.30;;;;;;6194086;23;20593;-87
2022/06/03 05:25:53;;;;;;;4.65;4.22;;;19.00;65.30;;;;;;6167366;23;20461;-87
2022/06/03 05:28:41;;;;;;;4.72;4.32;;;18.90;65.20;;;;;;6119981;23;20494;-87
2022/06/03 05:31:34;;;;;;;4.45;4.05;;;18.90;65.20;;;;;;6168138;23;20201;-87
2022/06/03 05:34:16;;;;;;;4.28;3.88;;;19.00;65.10;;;;;;6138942;23;20491;-87
2022/06/03 05:37:21;;;;;;;4.95;4.03;;;19.00;65.10;;;;;;6145908;23;20458;-87
2022/06/03 05:40:03;;;;;;;4.80;4.40;;;19.00;65.10;;;;;;6216762;23;20150;-87
2022/06/03 05:42:51;;;;;;;5.35;4.40;;;19.00;65.10;;;;;;6168976;23;20141;-87
2022/06/03 05:45:37;;;;;;;4.82;4.32;;;19.00;64.90;;;;;;6193870;23;20585;-87
2022/06/03 05:48:10;;;;;;;4.82;4.22;;;19.00;65.00;;;;;;6113464;23;20513;-87
2022/06/03 05:51:12;;;;;;;4.72;4.30;;;19.00;65.00;;;;;;6165853;23;20209;-87
2022/06/03 05:53:51;;;;;;;4.57;4.18;;;19.00;65.10;;;;;;6198347;23;20134;-87
2022/06/03 05:56:52;;;;;;;4.68;4.28;;;19.00;65.00;;;;;;6190896;23;20145;-87
2022/06/03 05:59:37;;;;;;;6.07;4.10;;;19.00;65.00;;;;;;6198190;23;20142;-87
2022/06/03 06:02:39;;;;;;;4.82;4.40;;;19.10;64.80;;;;;;6168259;23;20548;-87
2022/06/03 06:05:39;;;;;;;4.45;4.05;;;19.10;65.50;;;;;;6195446;23;20206;-87
2022/06/03 06:08:28;;;;;;;4.60;4.20;;;19.10;64.80;;;;;;6220322;23;20141;-87
2022/06/03 06:11:12;;;;;;;4.32;3.92;;;19.10;64.80;;;;;;6220629;23;20477;-87
2022/06/03 06:14:12;;;;;;;4.30;3.90;;;19.10;64.70;;;;;;6220277;23;20187;-87
2022/06/03 06:16:40;;;;;;;4.75;4.25;;;19.10;64.60;;;;;;6246714;23;20153;-87
2022/06/03 06:19:37;;;;;;;4.55;4.15;;;19.10;64.60;;;;;;6170857;23;20170;-87
2022/06/03 06:22:09;;;;;;;4.60;4.20;;;19.20;64.60;;;;;;6220775;23;20160;-87
2022/06/03 06:25:12;;;;;;;4.55;4.15;;;19.20;64.60;;;;;;6172159;23;20149;-87
2022/06/03 06:28:00;;;;;;;4.47;4.07;;;19.10;64.50;;;;;;6203842;23;20737;-88
2022/06/03 06:30:50;;;;;;;4.63;4.22;;;19.10;64.50;;;;;;6195106;23;20138;-88
2022/06/03 06:33:45;;;;;;;4.90;4.40;;;19.10;64.50;;;;;;6220003;23;20152;-88
2022/06/03 06:36:42;;;;;;;4.43;4.03;;;19.10;64.60;;;;;;6199852;23;20152;-87
2022/06/03 06:39:28;;;;;;;4.30;3.90;;;19.10;64.70;;;;;;6220447;23;20142;-88
2022/06/03 06:42:29;;;;;;;4.97;4.47;;;19.00;64.60;;;;;;6172091;23;20247;-88
2022/06/03 06:45:22;;;;;;;4.40;4.00;;;19.10;64.70;;;;;;6220375;23;20198;-88
2022/06/03 06:47:53;;;;;;;4.60;4.07;;;19.10;64.70;;;;;;6176148;23;20199;-87
2022/06/03 06:50:24;;;;;;;4.60;4.20;;;19.10;64.50;;;;;;6171560;23;20137;-88
2022/06/03 06:53:10;;;;;;;4.47;4.07;;;19.20;64.50;;;;;;6195878;23;20134;-87
2022/06/03 06:55:47;;;;;;;4.53;4.13;;;19.10;64.50;;;;;;6195917;23;20146;-87
2022/06/03 06:58:42;;;;;;;4.80;4.30;;;19.10;64.50;;;;;;6196332;23;20564;-88
2022/06/03 07:01:08;;;;;;;4.50;4.10;;;19.20;64.50;;;;;;6196896;23;20141;-87
2022/06/03 07:03:52;;;;;;;4.60;3.70;;;19.20;64.50;;;;;;6152839;23;20529;-87
2022/06/03 07:06:44;;;;;;;4.60;3.90;;;19.10;64.60;;;;;;6217304;23;20158;-87
2022/06/03 07:09:49;;;;;;;4.32;3.92;;;19.10;64.60;;;;;;6144314;23;20167;-87
2022/06/03 07:12:18;;;;;;;5.03;4.53;;;19.20;64.60;;;;;;6163410;23;20160;-88
2022/06/03 07:14:54;;;;;;;4.43;4.03;;;19.10;64.60;;;;;;6165034;23;20173;-88
2022/06/03 07:20:18;;;;;;;4.75;4.28;;;19.10;64.60;;;;;;6172781;23;20566;-87
2022/06/03 07:23:22;;;;;;;4.35;3.95;;;19.10;64.60;;;;;;6164763;23;20149;-87
2022/06/03 07:25:54;;;;;;;4.63;4.22;;;19.20;64.70;;;;;;6189147;23;20173;-87
2022/06/03 07:28:42;;;;;;;4.43;4.03;;;19.10;64.60;;;;;;6161270;23;20150;-88
2022/06/03 07:31:14;;;;;;;5.07;4.20;;;19.10;64.60;;;;;;6216575;23;20153;-87
2022/06/03 07:33:57;;;;;;;4.97;4.10;;;19.20;64.60;;;;;;6166393;23;20134;-87
2022/06/03 07:36:46;;;;;;;5.60;4.30;;;19.20;64.60;;;;;;6190063;23;20206;-87
2022/06/03 07:39:54;;;;;;;5.15;4.03;;;19.20;64.60;;;;;;6169417;23;20215;-87
2022/06/03 07:42:31;;;;;;;4.72;4.22;;;19.10;64.60;;;;;;6156429;23;20162;-88
2022/06/03 07:45:12;;;;;;;4.13;3.72;;;19.20;64.50;;;;;;6109167;23;20171;-87
2022/06/03 07:47:37;;;;;;;4.88;4.15;;;19.20;64.60;;;;;;6113489;23;20182;-87
2022/06/03 07:50:05;;;;;;;5.00;4.22;;;19.20;64.50;;;;;;6084874;23;20258;-87
2022/06/03 07:52:38;;;;;;;5.15;4.35;;;19.20;64.50;;;;;;6082809;23;20178;-88
2022/06/03 07:55:08;;;;;;;6.00;4.60;;;19.10;64.60;;;;;;6085683;23;20246;-87
2022/06/03 07:57:33;;;;;;;4.72;4.20;;;19.20;64.60;;;;;;6083957;23;20511;-88
2022/06/03 08:00:00;;;;;;;5.22;4.40;;;19.20;64.60;;;;;;6157151;23;20205;-87
2022/06/03 08:02:26;;;;;;;4.20;3.80;;;19.20;64.70;;;;;;6109222;23;20209;-87
2022/06/03 08:05:12;;;;;;;4.80;4.30;;;19.20;64.60;;;;;;6109324;23;20630;-86
2022/06/03 08:13:08;;;;;;;4.90;4.40;;;19.10;64.80;;;;;;6180923;23;20204;-87
2022/06/03 08:15:36;;;;;;;4.75;3.95;;;19.10;64.90;;;;;;6200490;23;20137;-87
2022/06/03 08:18:05;;;;;;;4.80;3.97;;;19.10;64.70;;;;;;6250085;23;20481;-87
2022/06/03 08:20:33;;;;;;;4.50;4.10;;;19.10;64.70;;;;;;6200692;23;20130;-87
2022/06/03 08:22:59;;;;;;;4.68;4.15;;;19.10;64.70;;;;;;6170499;23;20145;-88
2022/06/03 08:25:28;;;;;;;4.80;4.30;;;19.10;64.50;;;;;;6194161;23;20160;-87
2022/06/03 08:27:55;;;;;;;4.60;3.80;;;19.20;64.50;;;;;;6194795;23;20141;-87
2022/06/03 08:30:22;;;;;;;4.75;4.25;;;19.20;64.30;;;;;;6194934;23;20149;-88
2022/06/03 08:32:50;;;;;;;5.03;4.53;;;19.30;64.30;;;;;;6194502;23;20133;-87
2022/06/03 08:35:20;;;;;;;4.75;4.25;;;19.30;64.30;;;;;;6194400;23;20130;-87
2022/06/03 08:37:51;;;;;;;4.47;4.07;;;19.30;64.30;;;;;;6171980;23;20146;-87
2022/06/03 08:40:44;;;;;;;5.10;4.55;;;19.30;64.20;;;;;;6171204;23;20149;-87
2022/06/03 08:43:29;;;;;;;4.55;4.05;;;19.30;64.10;;;;;;6198324;23;20210;-87
2022/06/03 08:45:58;;;;;;;5.07;4.45;;;19.30;64.30;;;;;;6197540;23;20275;-87
2022/06/03 08:48:30;;;;;;;5.22;4.45;;;19.30;64.20;;;;;;6169482;23;20149;-87
2022/06/03 08:50:59;;;;;;;5.18;4.32;;;19.30;64.20;;;;;;6197751;23;20432;-87
2022/06/03 08:53:52;;;;;;;4.63;4.13;;;19.30;64.20;;;;;;6222008;23;20217;-87
2022/06/03 08:56:20;;;;;;;4.60;4.10;;;19.20;64.30;;;;;;6173744;23;20157;-87
2022/06/03 08:58:58;;;;;;;4.65;4.15;;;19.20;64.30;;;;;;6221582;23;20134;-87
2022/06/03 09:01:38;;;;;;;4.50;4.07;;;19.30;64.20;;;;;;6171261;23;20545;-87
2022/06/03 09:04:10;;;;;;;5.43;4.72;;;19.40;64.10;;;;;;6195158;23;20193;-88
2022/06/03 09:07:02;;;;;;;4.63;4.18;;;19.30;64.10;;;;;;6195606;23;20164;-87
2022/06/03 09:09:52;;;;;;;5.15;4.40;;;19.30;64.20;;;;;;6246191;23;20469;-87
2022/06/03 09:12:53;;;;;;;5.97;4.28;;;19.30;64.10;;;;;;6221613;23;20130;-88
2022/06/03 09:15:22;;;;;;;4.60;4.00;;;19.30;64.00;;;;;;6203107;23;20583;-87
2022/06/03 09:18:03;;;;;;;6.43;4.30;;;19.30;64.00;;;;;;6172505;23;20157;-88
2022/06/03 09:20:34;;;;;;;4.93;4.43;;;19.40;63.90;;;;;;6174604;23;20156;-87
2022/06/03 09:23:01;;;;;;;5.43;4.30;;;19.40;63.90;;;;;;6197916;23;20187;-88
2022/06/03 09:25:31;;;;;;;5.47;4.40;;;19.40;63.80;;;;;;6174004;23;20156;-87
2022/06/03 09:27:56;;;;;;;5.00;4.50;;;19.30;63.90;;;;;;6175447;23;20584;-87
2022/06/03 09:30:31;;;;;;;6.10;4.53;;;19.40;64.00;;;;;;6196436;23;20129;-87
2022/06/03 09:32:57;;;;;;;5.55;4.65;;;19.40;64.10;;;;;;6172798;23;20231;-87
2022/06/03 09:35:24;;;;;;;5.30;4.63;;;19.30;64.10;;;;;;6171431;23;20501;-87
2022/06/03 09:37:53;;;;;;;5.43;4.80;;;19.40;64.10;;;;;;6171007;23;20142;-87
2022/06/03 09:40:22;;;;;;;4.57;4.18;;;19.40;64.00;;;;;;6196263;23;20133;-87
2022/06/03 09:42:55;;;;;;;4.75;4.07;;;19.50;63.90;;;;;;6171615;23;20146;-87
2022/06/03 09:45:21;;;;;;;5.88;5.07;;;19.50;64.10;;;;;;6196884;23;20133;-86
2022/06/03 09:47:48;;;;;;;6.55;4.55;;;19.40;64.20;;;;;;6196928;23;20145;-86
2022/06/03 09:50:15;;;;;;;5.20;4.70;;;19.40;64.20;;;;;;6196624;23;20195;-85
2022/06/03 09:52:41;;;;;;;5.45;4.53;;;19.40;64.30;;;;;;6171328;23;20493;-86
2022/06/03 09:55:18;;;;;;;5.43;4.50;;;19.50;64.20;;;;;;6196225;23;20148;-86
2022/06/03 09:57:44;;;;;;;5.28;4.70;;;19.50;64.10;;;;;;6173121;23;20615;-86
2022/06/03 10:00:21;;;;;;;5.00;4.45;;;19.40;64.00;;;;;;6195609;23;20146;-86
2022/06/03 10:02:47;;;;;;;5.47;4.78;;;19.50;63.90;;;;;;6171658;23;20196;-86
2022/06/03 10:05:16;;;;;;;5.75;5.15;;;19.50;63.80;;;;;;6170976;23;20200;-86
2022/06/03 10:07:42;;;;;;;6.00;4.80;;;19.60;63.80;;;;;;6172040;23;20183;-86
2022/06/03 10:12:49;;;;;;;6.78;4.95;;;19.50;63.80;;;;;;6201996;23;20153;-86
2022/06/03 10:17:59;;;;;;;5.28;4.70;;;19.50;63.90;;;;;;6247622;23;20137;-86
2022/06/03 10:20:25;;;;;;;5.60;4.72;;;19.50;63.80;;;;;;6171234;23;20150;-86
2022/06/03 10:22:51;;;;;;;6.72;5.10;;;19.60;63.70;;;;;;6170638;23;20192;-85
2022/06/03 10:25:17;;;;;;;5.80;4.75;;;19.60;63.70;;;;;;6170640;23;20142;-86
2022/06/03 10:27:45;;;;;;;5.40;4.60;;;19.60;63.60;;;;;;6171079;23;20177;-86
2022/06/03 10:30:16;;;;;;;6.60;4.40;;;19.70;63.60;;;;;;6171211;23;20144;-85
2022/06/03 10:32:42;;;;;;;5.20;4.32;;;19.60;63.40;;;;;;6124089;23;20674;-86
2022/06/03 10:35:15;;;;;;;5.40;4.60;;;19.60;63.40;;;;;;6076613;23;20180;-86
2022/06/03 10:37:53;;;;;;;5.43;4.53;;;19.60;63.40;;;;;;6078106;23;20180;-86
2022/06/03 10:40:20;;;;;;;5.45;4.57;;;19.60;63.50;;;;;;6077060;23;20231;-86
2022/06/03 10:42:47;;;;;;;5.88;4.82;;;19.60;63.50;;;;;;6052933;23;20166;-86
2022/06/03 10:45:12;;;;;;;5.75;5.03;;;19.60;63.40;;;;;;6101023;23;20144;-86
2022/06/03 10:47:39;;;;;;;5.75;4.90;;;19.60;63.30;;;;;;6076565;23;20254;-86
2022/06/03 10:50:26;;;;;;;5.75;4.60;;;19.60;63.40;;;;;;6076870;23;20176;-86
2022/06/03 11:01:24;;;;;;;5.30;4.50;;;19.60;63.40;;;;;;6082804;23;20480;-86
2022/06/03 11:03:51;;;;;;;5.63;4.53;;;19.60;63.40;;;;;;6125906;23;20190;-86
2022/06/03 11:06:18;;;;;;;5.65;5.05;;;19.60;63.20;;;;;;6190811;23;20562;-86
2022/06/03 11:08:50;;;;;;;5.22;4.72;;;19.60;63.40;;;;;;6166834;23;20475;-85
2022/06/03 11:11:47;;;;;;;5.80;4.75;;;19.60;63.50;;;;;;6190971;23;20615;-86
2022/06/03 11:14:26;;;;;;;5.95;4.90;;;19.60;63.50;;;;;;6165908;23;20150;-86
2022/06/03 11:17:01;;;;;;;5.97;5.13;;;19.60;63.40;;;;;;6191414;23;20140;-86
2022/06/03 11:19:30;;;;;;;5.75;4.80;;;19.60;63.20;;;;;;6166548;23;20145;-86
2022/06/03 11:22:18;;;;;;;6.68;4.68;;;19.60;63.20;;;;;;6166789;23;20150;-86
2022/06/03 11:25:08;;;;;;;5.57;4.70;;;19.60;63.40;;;;;;6165188;23;20146;-85
2022/06/03 11:27:44;;;;;;;6.85;4.75;;;19.60;63.20;;;;;;6165755;23;20166;-86
2022/06/03 11:30:34;;;;;;;5.45;4.82;;;19.70;63.20;;;;;;6190215;23;20165;-86
2022/06/03 11:33:09;;;;;;;5.38;4.88;;;19.70;63.10;;;;;;6168369;23;20161;-86
2022/06/03 11:35:39;;;;;;;5.45;4.93;;;19.70;63.00;;;;;;6189451;23;20246;-86
2022/06/03 11:38:07;;;;;;;7.13;5.10;;;19.70;63.10;;;;;;6189706;23;20142;-86
2022/06/03 11:40:35;;;;;;;6.28;5.20;;;19.70;63.10;;;;;;6165236;23;20201;-86
2022/06/03 11:43:05;;;;;;;6.40;5.00;;;19.60;63.10;;;;;;6189811;23;20134;-86
2022/06/03 11:45:40;;;;;;;5.40;4.65;;;19.70;63.10;;;;;;6189739;23;20126;-86
2022/06/03 11:48:16;;;;;;;5.30;4.80;;;19.60;63.20;;;;;;6165030;23;20141;-86
2022/06/03 11:50:42;;;;;;;6.45;4.80;;;19.70;63.20;;;;;;6191290;23;20145;-86
2022/06/03 11:53:08;;;;;;;5.32;4.80;;;19.60;63.50;;;;;;6190956;23;20134;-86
2022/06/03 11:55:34;;;;;;;5.45;4.60;;;19.60;63.50;;;;;;6166454;23;20144;-86
2022/06/03 11:58:19;;;;;;;6.50;4.70;;;19.60;63.40;;;;;;6166268;23;20518;-86
2022/06/03 12:00:48;;;;;;;5.65;4.72;;;19.60;63.40;;;;;;6166615;23;20138;-86
2022/06/03 12:03:23;;;;;;;5.78;4.78;;;19.60;63.40;;;;;;6178390;23;20196;-86
2022/06/03 12:05:54;;;;;;;6.32;4.45;;;19.60;63.50;;;;;;6220676;23;20215;-85
2022/06/03 12:08:30;;;;;;;5.63;4.75;;;19.60;63.30;;;;;;6171056;23;20474;-86
2022/06/03 12:11:09;;;;;;;7.40;4.82;;;19.60;63.30;;;;;;6196437;23;20164;-86
2022/06/03 12:13:35;;;;;;;6.03;4.65;;;19.70;63.50;;;;;;6129274;23;20357;-85
2022/06/03 12:16:10;;;;;;;5.95;5.00;;;19.60;63.20;;;;;;6154884;23;20682;-85
2022/06/03 12:18:42;;;;;;;5.00;4.50;;;19.60;63.20;;;;;;6130534;23;20185;-85
2022/06/03 12:21:48;;;;;;;5.60;4.72;;;19.60;63.30;;;;;;6129439;23;20499;-85
2022/06/03 12:24:33;;;;;;;5.53;4.78;;;19.60;63.30;;;;;;6109310;23;20609;-85
2022/06/03 12:27:00;;;;;;;5.35;4.47;;;19.60;63.30;;;;;;6154545;23;20229;-85
2022/06/03 12:29:32;;;;;;;5.90;4.38;;;19.70;63.20;;;;;;6130572;23;20206;-85
2022/06/03 12:32:08;;;;;;;6.28;4.97;;;19.70;63.10;;;;;;6130819;23;20136;-86
2022/06/03 12:34:36;;;;;;;6.43;5.07;;;19.70;63.20;;;;;;6130239;23;20221;-85
2022/06/03 12:37:22;;;;;;;5.72;4.85;;;19.70;63.20;;;;;;6133958;23;20154;-86
2022/06/03 12:40:05;;;;;;;5.10;4.60;;;19.70;63.20;;;;;;6105716;23;20182;-87
2022/06/03 12:42:37;;;;;;;6.30;4.80;;;19.70;63.10;;;;;;6153732;23;20162;-86
2022/06/03 12:45:25;;;;;;;6.55;4.82;;;19.70;63.10;;;;;;6153425;23;20511;-85
2022/06/03 12:47:50;;;;;;;6.15;5.10;;;19.70;63.20;;;;;;6194957;23;20170;-85
2022/06/03 12:50:28;;;;;;;5.72;4.90;;;19.70;63.10;;;;;;6195626;23;20130;-85
2022/06/03 12:53:00;;;;;;;6.28;4.63;;;19.70;63.10;;;;;;6198622;23;20619;-86
2022/06/03 12:55:29;;;;;;;5.05;4.53;;;19.70;63.10;;;;;;6173440;23;20149;-86
2022/06/03 12:57:58;;;;;;;7.07;4.40;;;19.70;63.10;;;;;;6222103;23;20134;-86
2022/06/03 13:00:32;;;;;;;5.50;4.53;;;19.60;63.20;;;;;;6197272;23;20144;-86
2022/06/03 13:03:01;;;;;;;6.18;4.78;;;19.70;63.10;;;;;;6168787;23;20227;-86
2022/06/03 13:05:44;;;;;;;5.85;4.90;;;19.70;63.00;;;;;;6216877;23;20147;-85
2022/06/03 13:08:23;;;;;;;5.57;4.60;;;19.70;63.00;;;;;;6191019;23;20165;-86
2022/06/03 13:11:05;;;;;;;5.82;4.60;;;19.70;62.90;;;;;;6191031;23;20160;-86
2022/06/03 13:14:10;;;;;;;6.40;5.00;;;19.70;63.00;;;;;;6191134;23;20150;-87
2022/06/03 13:16:41;;;;;;;6.55;4.65;;;19.70;63.10;;;;;;6190849;23;20236;-86
2022/06/03 13:19:48;;;;;;;6.63;4.80;;;19.70;62.90;;;;;;6192792;23;20479;-86
2022/06/03 13:22:18;;;;;;;5.68;4.60;;;19.70;63.00;;;;;;6192604;23;20150;-86
2022/06/03 13:24:43;;;;;;;7.75;4.93;;;19.70;62.90;;;;;;6166627;23;20505;-86
2022/06/03 13:27:28;;;;;;;7.03;4.85;;;19.70;62.80;;;;;;6191711;23;20173;-85
2022/06/03 13:30:13;;;;;;;6.35;4.63;;;19.70;62.80;;;;;;6217741;23;20237;-86
2022/06/03 13:32:51;;;;;;;6.93;4.82;;;19.70;62.90;;;;;;6191911;23;20153;-85
2022/06/03 13:35:21;;;;;;;6.22;4.60;;;19.80;63.00;;;;;;6192626;23;20204;-86
2022/06/03 13:37:51;;;;;;;6.30;4.43;;;19.80;63.00;;;;;;6199612;23;20514;-86
2022/06/03 13:40:20;;;;;;;7.30;5.20;;;19.70;63.00;;;;;;6131876;23;20158;-86
2022/06/03 13:43:03;;;;;;;5.38;4.55;;;19.70;63.10;;;;;;6138091;23;20190;-86
2022/06/03 13:45:45;;;;;;;6.85;5.13;;;19.70;63.10;;;;;;6167347;23;20157;-86
2022/06/03 13:48:27;;;;;;;6.20;4.50;;;19.70;63.00;;;;;;6216178;23;20142;-86
2022/06/03 13:50:53;;;;;;;6.43;4.63;;;19.70;63.00;;;;;;6218047;23;20134;-86
2022/06/03 13:53:29;;;;;;;6.10;4.93;;;19.80;62.90;;;;;;6191583;23;20249;-85
2022/06/03 13:56:01;;;;;;;5.28;4.68;;;19.80;62.90;;;;;;6181992;23;20153;-86
2022/06/03 13:58:32;;;;;;;6.25;4.85;;;19.80;62.90;;;;;;6165965;23;20157;-86
2022/06/03 14:01:05;;;;;;;6.15;4.85;;;19.80;63.00;;;;;;6165373;23;20158;-85
2022/06/03 14:03:37;;;;;;;8.57;5.00;;;19.80;62.90;;;;;;6211657;23;20240;-85
2022/06/03 14:06:07;;;;;;;5.55;4.80;;;19.80;62.90;;;;;;6215281;23;20174;-85
2022/06/03 14:08:42;;;;;;;5.55;4.47;;;19.80;62.70;;;;;;6190130;23;20169;-86
2022/06/03 14:11:18;;;;;;;6.35;4.72;;;19.80;62.80;;;;;;6159252;23;20150;-85
2022/06/03 14:14:04;;;;;;;7.80;4.65;;;19.80;62.80;;;;;;6161204;23;20205;-85
2022/06/03 14:16:53;;;;;;;5.53;4.55;;;19.80;62.70;;;;;;6161845;23;20142;-85
2022/06/03 14:19:32;;;;;;;7.28;4.43;;;19.80;62.60;;;;;;6159284;23;20170;-85
2022/06/03 14:21:59;;;;;;;5.93;4.60;;;19.80;62.70;;;;;;6136130;23;20150;-85
2022/06/03 14:24:34;;;;;;;7.68;5.28;;;19.80;62.60;;;;;;6159556;23;20146;-85
2022/06/03 14:27:05;;;;;;;5.55;4.45;;;19.90;62.70;;;;;;6135820;23;20174;-85